createdAt,value
2023-04-05T00:01:12.571Z,99641.91
2023-04-05T00:03:40.255Z,99646.16
2023-04-05T00:06:07.849Z,99646.91
2023-04-05T00:08:34.343Z,99648.78
2023-04-05T00:11:01.953Z,99643.13
2023-04-05T00:13:28.509Z,99640.53
2023-04-05T00:15:58.191Z,99641.03
2023-04-05T00:18:25.654Z,99646.88
2023-04-05T00:20:53.040Z,99640.53
2023-04-05T00:23:21.348Z,99635.53
2023-04-05T00:25:48.192Z,99624.97
2023-04-05T00:28:14.715Z,99623.47
2023-04-05T00:30:41.411Z,99632.09
2023-04-05T00:33:08.091Z,99636.34
2023-04-05T00:35:34.636Z,99629.34
2023-04-05T00:38:01.263Z,99628.53
2023-04-05T00:40:27.812Z,99623.31
2023-04-05T00:42:54.309Z,99620.63
2023-04-05T00:45:20.989Z,99624.00
2023-04-05T00:47:47.832Z,99615.63
2023-04-05T00:50:15.972Z,99615.69
2023-04-05T00:52:43.986Z,99602.78
2023-04-05T00:55:11.207Z,99606.78
2023-04-05T00:57:39.184Z,99606.84
2023-04-05T01:00:09.498Z,99611.25
2023-04-05T01:02:45.981Z,99616.94
2023-04-05T01:05:37.112Z,99607.41
2023-04-05T01:08:17.675Z,99605.91
2023-04-05T01:10:58.967Z,99615.13
2023-04-05T01:13:25.994Z,99615.72
2023-04-05T01:15:52.599Z,99621.75
2023-04-05T01:18:19.359Z,99617.97
2023-04-05T01:20:56.197Z,99622.50
2023-04-05T01:23:42.557Z,99622.75
2023-04-05T01:26:15.056Z,99626.25
2023-04-05T01:29:09.739Z,99624.59
2023-04-05T01:31:53.666Z,99628.84
2023-04-05T01:34:36.858Z,99626.06
2023-04-05T01:37:07.509Z,99630.47
2023-04-05T01:39:36.572Z,99619.22
2023-04-05T01:42:04.372Z,99621.53
2023-04-05T01:44:31.248Z,99623.19
2023-04-05T01:46:57.710Z,99610.50
2023-04-05T01:49:24.667Z,99622.72
2023-04-05T01:51:51.257Z,99618.72
2023-04-05T01:54:17.733Z,99612.28
2023-04-05T01:56:44.622Z,99613.13
2023-04-05T01:59:11.159Z,99615.03
2023-04-05T02:01:37.654Z,99613.25
2023-04-05T02:04:04.178Z,99607.00
2023-04-05T02:06:31.992Z,99612.16
2023-04-05T02:08:58.529Z,99618.31
2023-04-05T02:11:25.057Z,99606.19
2023-04-05T02:13:51.561Z,99611.19
2023-04-05T02:16:18.473Z,99606.06
2023-04-05T02:18:50.780Z,99602.56
2023-04-05T02:21:17.293Z,99603.53
2023-04-05T02:23:44.073Z,99600.56
2023-04-05T02:26:10.801Z,99600.84
2023-04-05T02:28:37.258Z,99602.69
2023-04-05T02:31:09.282Z,99603.44
2023-04-05T02:33:35.916Z,99600.22
2023-04-05T02:36:06.634Z,99598.16
2023-04-05T02:38:33.857Z,99596.22
2023-04-05T02:41:00.448Z,99599.94
2023-04-05T02:43:27.634Z,99593.09
2023-04-05T02:45:54.203Z,99598.44
2023-04-05T02:48:20.945Z,99595.91
2023-04-05T02:50:49.930Z,99598.38
2023-04-05T02:53:19.470Z,99597.50
2023-04-05T02:55:56.865Z,99608.25
2023-04-05T02:58:24.322Z,99610.72
2023-04-05T03:00:52.933Z,99604.13
2023-04-05T03:03:22.892Z,99611.53
2023-04-05T03:05:59.144Z,99621.28
2023-04-05T03:08:25.630Z,99611.69
2023-04-05T03:10:52.153Z,99609.16
2023-04-05T03:13:18.586Z,99603.38
2023-04-05T03:15:45.113Z,99598.88
2023-04-05T03:18:11.609Z,99600.22
2023-04-05T03:20:41.458Z,99593.78
2023-04-05T03:23:08.986Z,99592.13
2023-04-05T03:25:37.182Z,99585.22
2023-04-05T03:28:08.591Z,99582.91
2023-04-05T03:30:36.982Z,99586.25
2023-04-05T03:33:03.945Z,99592.97
2023-04-05T03:35:30.958Z,99587.16
2023-04-05T03:37:57.532Z,99582.56
2023-04-05T03:40:24.682Z,99573.72
2023-04-05T03:42:51.554Z,99568.25
2023-04-05T03:45:23.102Z,99570.41
2023-04-05T03:47:51.031Z,99571.91
2023-04-05T03:50:17.615Z,99567.78
2023-04-05T03:52:47.163Z,99558.34
2023-04-05T03:55:14.148Z,99565.88
2023-04-05T03:57:41.640Z,99558.63
2023-04-05T04:00:14.994Z,99561.09
2023-04-05T04:02:46.751Z,99561.91
2023-04-05T04:05:14.375Z,99557.66
2023-04-05T04:07:41.788Z,99556.09
2023-04-05T04:10:10.508Z,99545.53
2023-04-05T04:12:37.969Z,99554.25
2023-04-05T04:15:05.020Z,99551.13
2023-04-05T04:17:39.609Z,99547.84
2023-04-05T04:20:13.208Z,99555.78
2023-04-05T04:22:40.558Z,99552.16
2023-04-05T04:25:12.628Z,99553.81
2023-04-05T04:27:40.266Z,99558.34
2023-04-05T04:30:12.477Z,99565.19
2023-04-05T04:32:55.416Z,99558.19
2023-04-05T04:35:28.097Z,99562.66
2023-04-05T04:38:00.174Z,99563.53
2023-04-05T04:40:41.190Z,99559.59
2023-04-05T04:43:18.895Z,99560.56
2023-04-05T04:45:51.987Z,99555.41
2023-04-05T04:48:18.780Z,99559.91
2023-04-05T04:50:46.690Z,99566.72
2023-04-05T04:53:13.785Z,99565.91
2023-04-05T04:55:43.305Z,99565.13
2023-04-05T04:58:11.791Z,99564.38
2023-04-05T05:00:40.686Z,99566.28
2023-04-05T05:03:08.556Z,99566.41
2023-04-05T05:05:35.151Z,99561.28
2023-04-05T05:08:01.866Z,99562.34
2023-04-05T05:10:28.332Z,99570.28
2023-04-05T05:12:54.899Z,99578.19
2023-04-05T05:15:21.359Z,99567.47
2023-04-05T05:17:53.858Z,99573.22
2023-04-05T05:20:21.369Z,99578.28
2023-04-05T05:22:48.477Z,99568.97
2023-04-05T05:25:17.712Z,99567.75
2023-04-05T05:27:44.254Z,99569.91
2023-04-05T05:30:11.485Z,99565.94
2023-04-05T05:32:38.125Z,99570.41
2023-04-05T05:35:05.176Z,99560.09
2023-04-05T05:37:33.161Z,99566.34
2023-04-05T05:39:59.953Z,99571.84
2023-04-05T05:42:27.361Z,99561.50
2023-04-05T05:44:56.401Z,99558.06
2023-04-05T05:47:23.097Z,99566.22
2023-04-05T05:49:49.825Z,99569.16
2023-04-05T05:52:16.959Z,99569.00
2023-04-05T05:54:43.502Z,99561.19
2023-04-05T05:57:09.985Z,99561.63
2023-04-05T05:59:36.662Z,99552.66
2023-04-05T06:02:06.117Z,99559.19
2023-04-05T06:04:34.151Z,99563.91
2023-04-05T06:07:01.726Z,99555.47
2023-04-05T06:09:29.063Z,99560.81
2023-04-05T06:11:57.292Z,99561.91
2023-04-05T06:14:25.237Z,99562.88
2023-04-05T06:16:54.309Z,99555.19
2023-04-05T06:19:20.887Z,99565.00
2023-04-05T06:21:47.597Z,99573.25
2023-04-05T06:24:14.090Z,99565.47
2023-04-05T06:26:41.210Z,99571.25
2023-04-05T06:29:07.744Z,99557.91
2023-04-05T06:31:36.060Z,99563.69
2023-04-05T06:34:02.718Z,99561.47
2023-04-05T06:36:33.872Z,99560.88
2023-04-05T06:39:00.469Z,99557.59
2023-04-05T06:41:27.824Z,99562.13
2023-04-05T06:43:57.158Z,99569.50
2023-04-05T06:46:24.075Z,99566.09
2023-04-05T06:48:52.250Z,99571.94
2023-04-05T06:51:21.545Z,99563.28
2023-04-05T06:53:48.160Z,99566.72
2023-04-05T06:56:14.636Z,99566.28
2023-04-05T06:58:41.325Z,99567.41
2023-04-05T07:01:07.859Z,99557.84
2023-04-05T07:03:34.447Z,99548.59
2023-04-05T07:06:04.312Z,99556.81
2023-04-05T07:08:32.932Z,99553.34
2023-04-05T07:10:59.720Z,99555.50
2023-04-05T07:13:26.545Z,99555.91
2023-04-05T07:16:00.494Z,99555.09
2023-04-05T07:18:27.318Z,99552.19
2023-04-05T07:21:00.041Z,99553.16
2023-04-05T07:23:29.443Z,99553.31
2023-04-05T07:26:00.606Z,99548.00
2023-04-05T07:28:27.196Z,99554.25
2023-04-05T07:30:53.873Z,99551.53
2023-04-05T07:33:20.938Z,99553.09
2023-04-05T07:35:53.366Z,99549.69
2023-04-05T07:38:21.247Z,99544.00
2023-04-05T07:40:51.389Z,99550.19
2023-04-05T07:43:20.721Z,99544.91
2023-04-05T07:45:47.294Z,99554.34
2023-04-05T07:48:13.741Z,99547.56
2023-04-05T07:50:41.176Z,99542.47
2023-04-05T07:53:08.252Z,99547.94
2023-04-05T07:55:38.203Z,99551.63
2023-04-05T07:58:04.845Z,99554.44
2023-04-05T08:00:31.491Z,99551.09
2023-04-05T08:03:01.798Z,99552.25
2023-04-05T08:05:28.900Z,99558.63
2023-04-05T08:07:57.907Z,99553.59
2023-04-05T08:10:24.992Z,99554.50
2023-04-05T08:12:51.437Z,99551.88
2023-04-05T08:15:17.929Z,99557.25
2023-04-05T08:17:44.936Z,99558.25
2023-04-05T08:20:11.894Z,99550.94
2023-04-05T08:22:38.368Z,99540.16
2023-04-05T08:25:08.231Z,99545.66
2023-04-05T08:27:34.778Z,99537.53
2023-04-05T08:30:01.363Z,99541.00
2023-04-05T08:32:27.980Z,99539.13
2023-04-05T08:34:54.458Z,99544.81
2023-04-05T08:37:21.168Z,99545.16
2023-04-05T08:39:47.629Z,99542.81
2023-04-05T08:42:18.982Z,99537.59
2023-04-05T08:44:46.926Z,99542.13
2023-04-05T08:47:18.485Z,99545.13
2023-04-05T08:49:45.901Z,99536.56
2023-04-05T08:52:12.759Z,99538.53
2023-04-05T08:54:39.312Z,99533.75
2023-04-05T08:57:07.378Z,99532.31
2023-04-05T08:59:37.592Z,99541.28
2023-04-05T09:02:10.947Z,99532.66
2023-04-05T09:04:44.816Z,99531.69
2023-04-05T09:07:14.022Z,99530.47
2023-04-05T09:09:48.934Z,99530.75
2023-04-05T09:12:15.885Z,99535.84
2023-04-05T09:14:43.388Z,99536.38
2023-04-05T09:17:10.507Z,99525.63
2023-04-05T09:19:37.278Z,99531.53
2023-04-05T09:22:05.732Z,99526.22
2023-04-05T09:24:37.019Z,99534.41
2023-04-05T09:27:06.240Z,99531.00
2023-04-05T09:29:35.344Z,99532.75
2023-04-05T09:32:05.600Z,99533.66
2023-04-05T09:34:33.253Z,99534.63
2023-04-05T09:37:00.919Z,99528.41
2023-04-05T09:39:32.591Z,99534.34
2023-04-05T09:42:26.082Z,99538.91
2023-04-05T09:45:05.033Z,99527.56
2023-04-05T09:47:34.657Z,99527.56
2023-04-05T09:50:04.414Z,99524.31
2023-04-05T09:52:32.276Z,99516.13
2023-04-05T09:55:04.299Z,99518.09
2023-04-05T09:57:34.015Z,99523.50
2023-04-05T10:00:00.785Z,99515.44
2023-04-05T10:02:37.170Z,99516.13
2023-04-05T10:05:08.483Z,99511.88
2023-04-05T10:07:35.754Z,99513.13
2023-04-05T10:10:02.306Z,99517.69
2023-04-05T10:12:29.368Z,99505.19
2023-04-05T10:14:57.172Z,99513.28
2023-04-05T10:17:25.921Z,99511.78
2023-04-05T10:20:20.979Z,99504.63
2023-04-05T10:23:11.053Z,99505.06
2023-04-05T10:25:47.777Z,99509.59
2023-04-05T10:28:52.915Z,99514.84
2023-04-05T10:31:36.369Z,99501.75
2023-04-05T10:34:06.863Z,99493.88
2023-04-05T10:36:49.570Z,99491.81
2023-04-05T10:39:36.655Z,99489.75
2023-04-05T10:42:22.206Z,99497.09
2023-04-05T10:44:59.969Z,99492.28
2023-04-05T10:47:28.704Z,99492.31
2023-04-05T10:50:00.257Z,99497.66
2023-04-05T10:52:28.615Z,99491.81
2023-04-05T10:54:57.268Z,99489.63
2023-04-05T10:57:24.971Z,99489.84
2023-04-05T10:59:52.354Z,99486.53
2023-04-05T11:02:19.535Z,99479.06
2023-04-05T11:04:46.163Z,99470.72
2023-04-05T11:07:16.375Z,99472.69
2023-04-05T11:10:14.321Z,99473.69
2023-04-05T11:12:46.767Z,99472.25
2023-04-05T11:15:28.537Z,99469.03
2023-04-05T11:18:09.012Z,99462.66
2023-04-05T11:20:51.861Z,99458.50
2023-04-05T11:23:23.085Z,99460.63
2023-04-05T11:25:59.717Z,99458.72
2023-04-05T11:28:44.382Z,99459.25
2023-04-05T11:31:19.001Z,99461.38
2023-04-05T11:33:52.167Z,99452.75
2023-04-05T11:36:41.879Z,99446.72
2023-04-05T11:39:21.346Z,99435.44
2023-04-05T11:42:01.574Z,99433.72
2023-04-05T11:44:39.982Z,99430.22
2023-04-05T11:47:06.922Z,99425.91
2023-04-05T11:49:34.030Z,99429.72
2023-04-05T11:52:10.805Z,99431.13
2023-04-05T11:54:37.368Z,99421.59
2023-04-05T11:57:04.133Z,99421.31
2023-04-05T11:59:33.153Z,99413.38
2023-04-05T12:02:08.147Z,99410.06
2023-04-05T12:04:36.153Z,99413.66
2023-04-05T12:07:14.031Z,99415.31
2023-04-05T12:09:59.752Z,99412.00
2023-04-05T12:12:26.782Z,99409.22
2023-04-05T12:14:59.394Z,99400.34
2023-04-05T12:17:44.035Z,99395.09
2023-04-05T12:20:12.909Z,99402.09
2023-04-05T12:22:41.542Z,99394.06
2023-04-05T12:25:09.175Z,99387.44
2023-04-05T12:27:36.062Z,99384.03
2023-04-05T12:30:17.166Z,99385.28
2023-04-05T12:32:52.376Z,99379.47
2023-04-05T12:35:31.972Z,99376.63
2023-04-05T12:38:05.912Z,99377.34
2023-04-05T12:40:34.998Z,99369.38
2023-04-05T12:43:05.898Z,99373.41
2023-04-05T12:45:40.346Z,99367.69
2023-04-05T12:48:13.184Z,99361.88
2023-04-05T12:50:47.249Z,99353.03
2023-04-05T12:53:21.901Z,99362.16
2023-04-05T12:55:53.151Z,99361.91
2023-04-05T12:58:24.077Z,99358.56
2023-04-05T13:00:50.578Z,99357.16
2023-04-05T13:03:21.115Z,99358.06
2023-04-05T13:05:50.970Z,99345.94
2023-04-05T13:08:20.920Z,99354.78
2023-04-05T13:10:48.550Z,99346.19
2023-04-05T13:13:18.267Z,99338.03
2023-04-05T13:15:45.991Z,99340.94
2023-04-05T13:18:14.899Z,99335.63
2023-04-05T13:20:45.533Z,99336.91
2023-04-05T13:23:13.099Z,99330.66
2023-04-05T13:25:41.488Z,99324.94
2023-04-05T13:28:08.356Z,99331.94
2023-04-05T13:30:35.093Z,99325.06
2023-04-05T13:33:01.716Z,99321.19
2023-04-05T13:35:28.338Z,99317.47
2023-04-05T13:37:54.926Z,99312.38
2023-04-05T13:40:21.415Z,99312.00
2023-04-05T13:42:49.063Z,99310.06
2023-04-05T13:45:15.806Z,99303.00
2023-04-05T13:47:42.295Z,99307.38
2023-04-05T13:50:09.082Z,99299.91
2023-04-05T13:52:35.602Z,99295.72
2023-04-05T13:55:03.746Z,99295.75
2023-04-05T13:57:30.851Z,99295.66
2023-04-05T13:59:57.439Z,99304.34
2023-04-05T14:02:26.065Z,99303.53
2023-04-05T14:04:56.323Z,99301.84
2023-04-05T14:07:24.128Z,99302.94
2023-04-05T14:09:50.882Z,99293.44
2023-04-05T14:12:18.256Z,99292.69
2023-04-05T14:14:44.958Z,99287.31
2023-04-05T14:17:14.327Z,99288.25
2023-04-05T14:19:40.970Z,99288.28
2023-04-05T14:22:07.838Z,99288.25
2023-04-05T14:24:34.654Z,99288.16
2023-04-05T14:27:01.258Z,99277.28
2023-04-05T14:29:27.763Z,99272.84
2023-04-05T14:31:56.116Z,99278.16
2023-04-05T14:34:22.914Z,99274.63
2023-04-05T14:36:49.763Z,99276.38
2023-04-05T14:39:16.565Z,99272.03
2023-04-05T14:41:44.055Z,99276.41
2023-04-05T14:44:10.591Z,99270.47
2023-04-05T14:46:37.258Z,99274.97
2023-04-05T14:49:06.716Z,99269.72
2023-04-05T14:51:33.286Z,99264.28
2023-04-05T14:53:59.924Z,99264.28
2023-04-05T14:56:26.472Z,99269.34
2023-04-05T14:58:53.106Z,99265.84
2023-04-05T15:01:19.701Z,99267.56
2023-04-05T15:03:48.312Z,99264.97
2023-04-05T15:06:16.319Z,99264.06
2023-04-05T15:08:42.845Z,99264.94
2023-04-05T15:11:09.402Z,99263.38
2023-04-05T15:13:35.983Z,99262.81
2023-04-05T15:16:05.831Z,99257.38
2023-04-05T15:18:32.355Z,99252.03
2023-04-05T15:20:58.907Z,99253.06
2023-04-05T15:23:25.536Z,99248.72
2023-04-05T15:25:52.032Z,99248.69
2023-04-05T15:28:18.536Z,99253.78
2023-04-05T15:30:45.817Z,99249.22
2023-04-05T15:33:14.952Z,99249.22
2023-04-05T15:35:41.515Z,99247.41
2023-04-05T15:38:10.947Z,99244.63
2023-04-05T15:40:38.209Z,99244.47
2023-04-05T15:43:04.851Z,99243.41
2023-04-05T15:45:31.849Z,99245.13
2023-04-05T15:47:58.497Z,99240.75
2023-04-05T15:50:25.118Z,99249.59
2023-04-05T15:52:51.657Z,99247.88
2023-04-05T15:55:18.358Z,99248.00
2023-04-05T15:57:44.944Z,99241.94
2023-04-05T16:00:12.159Z,99254.28
2023-04-05T16:02:38.884Z,99247.22
2023-04-05T16:05:05.909Z,99247.22
2023-04-05T16:07:32.990Z,99251.56
2023-04-05T16:09:59.556Z,99248.03
2023-04-05T16:12:26.368Z,99247.13
2023-04-05T16:14:52.857Z,99243.56
2023-04-05T16:17:20.573Z,99247.88
2023-04-05T16:19:47.257Z,99246.06
2023-04-05T16:22:13.785Z,99245.13
2023-04-05T16:24:40.272Z,99243.41
2023-04-05T16:27:06.884Z,99246.06
2023-04-05T16:29:33.439Z,99242.41
2023-04-05T16:31:59.967Z,99249.44
2023-04-05T16:34:26.590Z,99237.16
2023-04-05T16:36:53.118Z,99248.56
2023-04-05T16:39:19.717Z,99248.56
2023-04-05T16:41:46.233Z,99247.66
2023-04-05T16:44:12.888Z,99242.34
2023-04-05T16:46:39.877Z,99249.31
2023-04-05T16:49:06.500Z,99236.16
2023-04-05T16:51:34.650Z,99247.53
2023-04-05T16:54:01.303Z,99242.13
2023-04-05T16:56:27.854Z,99236.84
2023-04-05T16:58:55.197Z,99243.84
2023-04-05T17:01:24.543Z,99242.94
2023-04-05T17:03:51.297Z,99241.13
2023-04-05T17:06:17.822Z,99241.91
2023-04-05T17:08:44.352Z,99242.81
2023-04-05T17:11:10.908Z,99238.41
2023-04-05T17:13:40.589Z,99236.63
2023-04-05T17:16:07.768Z,99242.72
2023-04-05T17:18:34.335Z,99235.72
2023-04-05T17:21:00.850Z,99237.47
2023-04-05T17:23:28.049Z,99227.81
2023-04-05T17:25:54.599Z,99230.47
2023-04-05T17:28:21.207Z,99232.13
2023-04-05T17:30:47.892Z,99225.88
2023-04-05T17:33:14.638Z,99232.78
2023-04-05T17:35:41.182Z,99232.75
2023-04-05T17:38:07.835Z,99230.91
2023-04-05T17:40:34.451Z,99234.31
2023-04-05T17:43:01.185Z,99229.78
2023-04-05T17:45:28.285Z,99227.97
2023-04-05T17:47:54.927Z,99230.47
2023-04-05T17:50:23.286Z,99238.19
2023-04-05T17:52:51.264Z,99231.09
2023-04-05T17:55:17.831Z,99230.16
2023-04-05T17:57:44.346Z,99231.00
2023-04-05T18:00:11.582Z,99227.41
2023-04-05T18:02:40.672Z,99220.25
2023-04-05T18:05:07.846Z,99223.63
2023-04-05T18:07:38.204Z,99224.19
2023-04-05T18:10:06.279Z,99239.78
2023-04-05T18:12:33.319Z,99236.94
2023-04-05T18:14:59.997Z,99238.47
2023-04-05T18:17:27.985Z,99239.16
2023-04-05T18:19:54.871Z,99246.19
2023-04-05T18:22:21.552Z,99242.47
2023-04-05T18:24:48.106Z,99247.31
2023-04-05T18:27:14.649Z,99248.84
2023-04-05T18:29:41.367Z,99251.50
2023-04-05T18:32:08.307Z,99252.81
2023-04-05T18:34:35.144Z,99250.22
2023-04-05T18:37:01.938Z,99247.69
2023-04-05T18:39:28.507Z,99251.22
2023-04-05T18:41:55.105Z,99251.16
2023-04-05T18:44:21.686Z,99260.53
2023-04-05T18:46:49.646Z,99264.75
2023-04-05T18:49:18.257Z,99256.44
2023-04-05T18:51:45.593Z,99262.63
2023-04-05T18:54:13.761Z,99258.47
2023-04-05T18:56:40.554Z,99269.66
2023-04-05T18:59:07.544Z,99268.16
2023-04-05T19:01:34.405Z,99270.00
2023-04-05T19:04:00.901Z,99265.63
2023-04-05T19:06:28.073Z,99266.47
2023-04-05T19:08:54.587Z,99268.91
2023-04-05T19:11:22.054Z,99271.56
2023-04-05T19:13:48.623Z,99280.31
2023-04-05T19:16:20.299Z,99268.97
2023-04-05T19:18:46.814Z,99281.13
2023-04-05T19:21:13.795Z,99270.44
2023-04-05T19:23:40.339Z,99275.59
2023-04-05T19:26:06.963Z,99276.41
2023-04-05T19:28:33.519Z,99276.03
2023-04-05T19:31:00.117Z,99274.84
2023-04-05T19:33:29.581Z,99281.84
2023-04-05T19:35:57.924Z,99282.78
2023-04-05T19:38:27.939Z,99278.41
2023-04-05T19:40:54.514Z,99278.31
2023-04-05T19:43:21.286Z,99276.50
2023-04-05T19:45:52.236Z,99278.19
2023-04-05T19:48:38.617Z,99272.88
2023-04-05T19:51:07.587Z,99276.19
2023-04-05T19:53:39.974Z,99277.72
2023-04-05T19:56:13.826Z,99274.97
2023-04-05T19:58:43.923Z,99265.34
2023-04-05T20:01:13.870Z,99267.03
2023-04-05T20:03:41.954Z,99265.22
2023-04-05T20:06:09.404Z,99260.81
2023-04-05T20:08:46.684Z,99260.53
2023-04-05T20:11:22.124Z,99262.16
2023-04-05T20:13:55.651Z,99254.16
2023-04-05T20:16:33.590Z,99254.16
2023-04-05T20:19:14.389Z,99258.25
2023-04-05T20:21:42.131Z,99254.66
2023-04-05T20:24:10.979Z,99255.59
2023-04-05T20:26:40.053Z,99251.25
2023-04-05T20:29:08.378Z,99250.50
2023-04-05T20:31:39.688Z,99249.69
2023-04-05T20:34:29.956Z,99243.91
2023-04-05T20:37:05.392Z,99238.50
2023-04-05T20:39:34.357Z,99243.50
2023-04-05T20:42:04.889Z,99246.88
2023-04-05T20:44:34.945Z,99240.84
2023-04-05T20:47:01.579Z,99239.88
2023-04-05T20:49:31.404Z,99239.22
2023-04-05T20:51:58.068Z,99236.38
2023-04-05T20:54:25.031Z,99239.78
2023-04-05T20:56:55.059Z,99236.31
2023-04-05T20:59:22.977Z,99242.22
2023-04-05T21:01:49.680Z,99233.38
2023-04-05T21:04:18.245Z,99225.44
2023-04-05T21:06:44.827Z,99226.19
2023-04-05T21:09:14.133Z,99232.13
2023-04-05T21:11:40.797Z,99219.00
2023-04-05T21:14:07.327Z,99225.13
2023-04-05T21:16:36.668Z,99227.78
2023-04-05T21:19:07.894Z,99221.66
2023-04-05T21:21:34.686Z,99219.97
2023-04-05T21:24:01.213Z,99221.84
2023-04-05T21:26:27.812Z,99226.19
2023-04-05T21:28:54.360Z,99219.97
2023-04-05T21:31:20.937Z,99217.31
2023-04-05T21:33:50.116Z,99228.56
2023-04-05T21:36:16.658Z,99221.34
2023-04-05T21:38:45.921Z,99224.69
2023-04-05T21:41:12.512Z,99224.47
2023-04-05T21:43:39.041Z,99225.97
2023-04-05T21:46:05.606Z,99225.19
2023-04-05T21:48:32.136Z,99226.69
2023-04-05T21:50:58.676Z,99229.03
2023-04-05T21:53:25.569Z,99226.25
2023-04-05T21:55:53.112Z,99225.59
2023-04-05T21:58:21.940Z,99223.59
2023-04-05T22:01:03.857Z,99227.03
2023-04-05T22:03:33.773Z,99220.13
2023-04-05T22:06:04.721Z,99235.53
2023-04-05T22:12:12.112Z,99225.63
2023-04-05T22:14:38.648Z,99228.25
2023-04-05T22:17:05.248Z,99225.94
2023-04-05T22:19:37.481Z,99216.97
2023-04-05T22:22:04.040Z,99218.16
2023-04-05T22:24:30.708Z,99216.38
2023-04-05T22:26:59.578Z,99221.41
2023-04-05T22:29:26.228Z,99222.53
2023-04-05T22:31:52.790Z,99216.47
2023-04-05T22:34:19.414Z,99221.81
2023-04-05T22:36:46.090Z,99223.59
2023-04-05T22:39:12.749Z,99218.75
2023-04-05T22:41:39.274Z,99212.44
2023-04-05T22:44:06.350Z,99221.81
2023-04-05T22:46:33.074Z,99211.47
2023-04-05T22:49:03.060Z,99210.13
2023-04-05T22:51:29.946Z,99210.34
2023-04-05T22:53:56.673Z,99210.50
2023-04-05T22:56:24.081Z,99218.25
2023-04-05T22:58:51.506Z,99211.63
2023-04-05T23:01:18.711Z,99208.31
2023-04-05T23:03:45.588Z,99210.22
2023-04-05T23:06:14.172Z,99199.50
2023-04-05T23:08:46.673Z,99203.88
2023-04-05T23:11:13.239Z,99201.38
2023-04-05T23:13:42.399Z,99198.66
2023-04-05T23:16:09.046Z,99196.81
2023-04-05T23:18:35.779Z,99195.06
2023-04-05T23:21:05.703Z,99195.66
2023-04-05T23:23:32.286Z,99192.91
2023-04-05T23:25:58.805Z,99192.91
2023-04-05T23:28:25.484Z,99191.13
2023-04-05T23:30:52.054Z,99192.84
2023-04-05T23:33:25.786Z,99182.13
2023-04-05T23:35:52.340Z,99186.47
2023-04-05T23:38:22.089Z,99181.13
2023-04-05T23:40:48.581Z,99178.34
2023-04-05T23:43:17.801Z,99179.41
2023-04-05T23:45:44.353Z,99178.47
2023-04-05T23:48:10.977Z,99176.69
2023-04-05T23:50:37.555Z,99171.94
2023-04-05T23:53:07.834Z,99177.06
2023-04-05T23:55:40.058Z,99178.63
2023-04-05T23:58:08.157Z,99175.59
